Time;durP1;ratioP1;P1;durP2;ratioP2;P2;SDS_P1;SDS_P2;PMS_P1;PMS_P2;Temp;Humidity;BMP_temperature;BMP_pressure;BME280_temperature;BME280_humidity;BME280_pressure;Samples;Min_cycle;Max_cycle;Signal;HPM_P1;HPM_P2
2023/12/26 00:01:27;;;;;;;9.88;4.07;;;;;;;;;;6269785;28;20053;-65
2023/12/26 00:04:28;;;;;;;11.88;4.07;;;;;;;;;;6266975;28;20636;-63
2023/12/26 00:07:29;;;;;;;15.15;3.95;;;;;;;;;;6269615;28;20064;-65
2023/12/26 00:10:30;;;;;;;9.77;4.60;;;;;;;;;;6269263;28;20171;-63
2023/12/26 00:13:33;;;;;;;7.85;4.05;;;;;;;;;;6266140;28;20045;-65
2023/12/26 00:16:34;;;;;;;8.23;3.83;;;;;;;;;;6271371;28;20533;-66
2023/12/26 00:19:35;;;;;;;11.10;4.03;;;;;;;;;;6266203;28;20049;-65
2023/12/26 00:22:36;;;;;;;10.07;4.05;;;;;;;;;;6271819;28;20523;-64
2023/12/26 00:25:37;;;;;;;9.98;3.90;;;;;;;;;;6271110;28;20060;-65
2023/12/26 00:28:38;;;;;;;9.47;3.67;;;;;;;;;;6271580;28;20415;-65
2023/12/26 00:31:40;;;;;;;9.50;3.65;;;;;;;;;;6270372;28;20044;-64
2023/12/26 00:34:41;;;;;;;11.63;4.30;;;;;;;;;;6267500;28;20099;-66
2023/12/26 00:37:41;;;;;;;8.25;4.10;;;;;;;;;;6265700;28;20576;-65
2023/12/26 00:40:42;;;;;;;7.22;3.40;;;;;;;;;;6269276;28;20056;-65
2023/12/26 00:43:43;;;;;;;7.88;3.60;;;;;;;;;;6265802;28;20048;-65
2023/12/26 00:46:46;;;;;;;6.80;3.60;;;;;;;;;;6269239;28;20049;-64
2023/12/26 00:49:46;;;;;;;8.15;3.00;;;;;;;;;;6264929;28;20041;-63
2023/12/26 00:52:47;;;;;;;11.77;3.78;;;;;;;;;;6255032;28;20071;-66
2023/12/26 00:55:48;;;;;;;8.70;3.90;;;;;;;;;;6264990;28;20400;-64
2023/12/26 00:58:49;;;;;;;9.85;4.25;;;;;;;;;;6264501;28;20060;-65
2023/12/26 01:01:49;;;;;;;11.40;3.50;;;;;;;;;;6271279;28;20111;-63
2023/12/26 01:04:50;;;;;;;8.98;4.00;;;;;;;;;;6266402;28;20814;-66
2023/12/26 01:07:51;;;;;;;11.18;4.10;;;;;;;;;;6269384;28;20041;-65
2023/12/26 01:10:52;;;;;;;11.05;4.60;;;;;;;;;;6269598;28;20791;-64
2023/12/26 01:13:53;;;;;;;9.15;4.10;;;;;;;;;;6268437;28;20044;-66
2023/12/26 01:16:54;;;;;;;7.78;3.60;;;;;;;;;;6269033;28;20075;-65
2023/12/26 01:19:55;;;;;;;7.95;3.30;;;;;;;;;;6270249;28;20060;-64
2023/12/26 01:22:56;;;;;;;7.70;3.30;;;;;;;;;;6270007;28;20064;-63
2023/12/26 01:25:56;;;;;;;8.93;3.42;;;;;;;;;;6263347;28;20049;-63
2023/12/26 01:28:57;;;;;;;8.32;3.15;;;;;;;;;;6265041;28;20057;-63
2023/12/26 01:31:57;;;;;;;7.88;3.22;;;;;;;;;;6270879;28;20664;-63
2023/12/26 01:34:58;;;;;;;8.15;3.05;;;;;;;;;;6267264;28;20136;-64
2023/12/26 01:37:59;;;;;;;7.75;3.13;;;;;;;;;;6269895;28;20048;-65
2023/12/26 01:41:00;;;;;;;7.85;3.65;;;;;;;;;;6270711;28;20507;-65
2023/12/26 01:44:00;;;;;;;7.10;2.75;;;;;;;;;;6272064;28;20045;-66
2023/12/26 01:47:03;;;;;;;8.65;3.00;;;;;;;;;;6271367;28;20119;-66
2023/12/26 01:50:04;;;;;;;7.43;3.13;;;;;;;;;;6272351;28;20726;-65
2023/12/26 01:53:05;;;;;;;8.95;3.40;;;;;;;;;;6274093;28;20063;-62
2023/12/26 01:56:11;;;;;;;8.93;3.05;;;;;;;;;;6271309;28;20507;-64
2023/12/26 01:59:12;;;;;;;7.25;2.90;;;;;;;;;;6274100;28;20057;-64
2023/12/26 02:02:14;;;;;;;6.18;2.88;;;;;;;;;;6270506;28;20049;-65
2023/12/26 02:05:15;;;;;;;9.68;2.85;;;;;;;;;;6266924;28;20429;-63
2023/12/26 02:08:16;;;;;;;7.65;3.05;;;;;;;;;;6267218;28;20518;-63
2023/12/26 02:11:17;;;;;;;6.68;2.60;;;;;;;;;;6268939;28;20111;-62
2023/12/26 02:14:18;;;;;;;6.45;2.83;;;;;;;;;;6268155;28;20052;-62
2023/12/26 02:17:25;;;;;;;6.85;2.95;;;;;;;;;;6282545;28;20135;-66
2023/12/26 02:20:26;;;;;;;7.53;2.85;;;;;;;;;;6310235;28;20196;-62
2023/12/26 02:23:29;;;;;;;9.27;2.90;;;;;;;;;;6304173;28;20135;-65
2023/12/26 02:26:33;;;;;;;6.43;2.97;;;;;;;;;;6307695;28;20113;-65
2023/12/26 02:29:34;;;;;;;6.88;2.83;;;;;;;;;;6314274;28;20070;-65
2023/12/26 02:32:37;;;;;;;9.32;2.97;;;;;;;;;;6311710;28;20122;-63
2023/12/26 02:35:38;;;;;;;7.22;3.30;;;;;;;;;;6314872;28;20040;-62
2023/12/26 02:38:39;;;;;;;5.90;2.65;;;;;;;;;;6299570;28;20055;-62
2023/12/26 02:41:40;;;;;;;7.20;3.00;;;;;;;;;;6306269;28;20048;-66
2023/12/26 02:44:41;;;;;;;7.13;3.08;;;;;;;;;;6284394;28;20044;-64
2023/12/26 02:47:42;;;;;;;8.35;3.35;;;;;;;;;;6297150;28;20677;-64
2023/12/26 02:50:43;;;;;;;7.43;3.38;;;;;;;;;;6310506;28;20044;-65
2023/12/26 02:53:44;;;;;;;6.28;3.30;;;;;;;;;;6314412;28;20060;-62
2023/12/26 02:56:46;;;;;;;7.28;3.08;;;;;;;;;;6314282;28;20048;-63
2023/12/26 02:59:46;;;;;;;7.20;3.13;;;;;;;;;;6313448;28;20644;-61
2023/12/26 03:02:47;;;;;;;7.32;3.08;;;;;;;;;;6282691;28;20117;-62
2023/12/26 03:05:48;;;;;;;6.18;2.75;;;;;;;;;;6301477;28;20048;-65
2023/12/26 03:08:48;;;;;;;6.18;3.35;;;;;;;;;;6313860;28;20059;-63
2023/12/26 03:11:49;;;;;;;7.00;3.15;;;;;;;;;;6313811;28;20046;-62
2023/12/26 03:14:50;;;;;;;5.00;2.78;;;;;;;;;;6313877;28;20459;-63
2023/12/26 03:17:53;;;;;;;7.43;3.00;;;;;;;;;;6313130;28;20047;-62
2023/12/26 03:20:53;;;;;;;4.68;2.58;;;;;;;;;;6311756;28;20463;-62
2023/12/26 03:23:55;;;;;;;6.43;2.63;;;;;;;;;;6311974;28;20547;-63
2023/12/26 03:26:56;;;;;;;7.90;3.10;;;;;;;;;;6301305;28;20055;-61
2023/12/26 03:29:57;;;;;;;7.50;3.13;;;;;;;;;;6312693;28;20040;-64
2023/12/26 03:32:58;;;;;;;5.88;2.90;;;;;;;;;;6314603;28;20044;-63
2023/12/26 03:36:01;;;;;;;6.13;2.90;;;;;;;;;;6313784;28;20051;-62
2023/12/26 03:39:02;;;;;;;6.60;2.67;;;;;;;;;;6309614;28;22450;-63
2023/12/26 03:42:03;;;;;;;6.95;3.40;;;;;;;;;;6310774;28;20046;-62
2023/12/26 03:45:04;;;;;;;8.40;3.70;;;;;;;;;;6313473;28;20467;-62
2023/12/26 03:48:06;;;;;;;6.93;3.65;;;;;;;;;;6314513;28;20046;-64
2023/12/26 03:51:06;;;;;;;10.23;5.00;;;;;;;;;;6310430;28;20453;-62
2023/12/26 03:54:07;;;;;;;7.03;3.10;;;;;;;;;;6313695;28;20175;-62
2023/12/26 03:57:08;;;;;;;6.95;3.00;;;;;;;;;;6312464;28;20388;-63
2023/12/26 04:00:09;;;;;;;7.15;3.20;;;;;;;;;;6311628;28;20052;-63
2023/12/26 04:03:10;;;;;;;6.90;2.90;;;;;;;;;;6315065;28;20514;-63
2023/12/26 04:06:11;;;;;;;6.03;2.95;;;;;;;;;;6311736;28;20056;-62
2023/12/26 04:09:13;;;;;;;6.93;2.40;;;;;;;;;;6309432;28;20519;-62
2023/12/26 04:12:14;;;;;;;5.50;2.75;;;;;;;;;;6311295;28;20047;-62
2023/12/26 04:15:14;;;;;;;7.18;3.00;;;;;;;;;;6313448;28;20044;-65
2023/12/26 04:18:15;;;;;;;7.47;3.10;;;;;;;;;;6312235;28;20139;-66
2023/12/26 04:21:16;;;;;;;5.68;2.65;;;;;;;;;;6312045;28;20048;-65
2023/12/26 04:24:17;;;;;;;6.05;2.92;;;;;;;;;;6312965;28;20048;-65
2023/12/26 04:27:17;;;;;;;6.15;2.47;;;;;;;;;;6313315;28;20055;-62
2023/12/26 04:30:18;;;;;;;6.70;2.72;;;;;;;;;;6310119;28;20048;-63
2023/12/26 04:33:19;;;;;;;5.65;2.75;;;;;;;;;;6310643;28;20827;-62
2023/12/26 04:36:20;;;;;;;6.10;2.65;;;;;;;;;;6293397;28;20917;-62
2023/12/26 04:39:21;;;;;;;6.78;2.65;;;;;;;;;;6286933;28;20059;-63
2023/12/26 04:42:22;;;;;;;5.75;2.53;;;;;;;;;;6288948;28;20170;-62
2023/12/26 04:45:24;;;;;;;5.20;2.50;;;;;;;;;;6290206;28;20064;-62
2023/12/26 04:48:24;;;;;;;6.05;2.38;;;;;;;;;;6285854;28;20049;-62
2023/12/26 04:51:28;;;;;;;7.13;2.85;;;;;;;;;;6284186;28;20054;-62
2023/12/26 04:54:29;;;;;;;7.07;2.53;;;;;;;;;;6287160;28;20485;-62
2023/12/26 04:57:30;;;;;;;5.85;2.60;;;;;;;;;;6288316;28;20051;-62
2023/12/26 05:00:31;;;;;;;6.15;2.72;;;;;;;;;;6283525;28;20044;-61
2023/12/26 05:03:33;;;;;;;5.55;2.35;;;;;;;;;;6286097;28;20041;-62
2023/12/26 05:06:33;;;;;;;;;;;;;;;;;;6288889;28;20048;-62
2023/12/26 05:09:35;;;;;;;6.35;2.20;;;;;;;;;;6292863;28;20359;-62
2023/12/26 05:12:36;;;;;;;7.40;2.63;;;;;;;;;;6291936;28;20049;-62
2023/12/26 05:15:36;;;;;;;5.93;2.42;;;;;;;;;;6294876;28;20036;-62
2023/12/26 05:18:37;;;;;;;5.70;2.50;;;;;;;;;;6295701;28;20098;-63
2023/12/26 05:21:38;;;;;;;5.80;2.42;;;;;;;;;;6293098;28;20509;-62
2023/12/26 05:24:39;;;;;;;5.82;2.53;;;;;;;;;;6293219;28;20048;-62
2023/12/26 05:27:39;;;;;;;5.05;2.30;;;;;;;;;;6293112;28;20475;-62
2023/12/26 05:30:40;;;;;;;6.32;2.60;;;;;;;;;;6292071;28;20127;-62
2023/12/26 05:33:40;;;;;;;5.10;2.47;;;;;;;;;;6293040;28;20043;-62
2023/12/26 05:36:41;;;;;;;5.00;2.40;;;;;;;;;;6295400;28;20040;-64
2023/12/26 05:39:44;;;;;;;6.68;2.72;;;;;;;;;;6291345;28;20052;-61
2023/12/26 05:42:46;;;;;;;5.38;2.30;;;;;;;;;;6293295;28;20449;-61
2023/12/26 05:45:47;;;;;;;5.13;2.00;;;;;;;;;;6294077;28;20091;-61
2023/12/26 05:48:48;;;;;;;6.63;2.60;;;;;;;;;;6293823;28;20045;-61
2023/12/26 05:51:48;;;;;;;5.65;2.15;;;;;;;;;;6292928;28;20522;-62
2023/12/26 05:54:49;;;;;;;5.25;2.33;;;;;;;;;;6292451;28;20523;-61
2023/12/26 05:57:50;;;;;;;5.85;2.72;;;;;;;;;;6293741;28;20101;-61
2023/12/26 06:00:51;;;;;;;4.75;2.25;;;;;;;;;;6289591;28;20048;-61
2023/12/26 06:03:52;;;;;;;4.68;2.28;;;;;;;;;;6293006;28;20395;-60
2023/12/26 06:06:53;;;;;;;6.90;2.40;;;;;;;;;;6293352;28;20048;-61
2023/12/26 06:09:53;;;;;;;5.47;2.90;;;;;;;;;;6292150;28;20037;-61
2023/12/26 06:12:54;;;;;;;6.70;2.40;;;;;;;;;;6292526;28;20403;-61
2023/12/26 06:15:55;;;;;;;3.63;1.80;;;;;;;;;;6292859;28;20051;-62
2023/12/26 06:18:56;;;;;;;6.20;2.20;;;;;;;;;;6291826;28;20048;-61
2023/12/26 06:21:57;;;;;;;5.75;2.47;;;;;;;;;;6287610;28;20045;-61
2023/12/26 06:24:57;;;;;;;6.80;3.03;;;;;;;;;;6291760;28;20439;-62
2023/12/26 06:27:59;;;;;;;8.48;2.83;;;;;;;;;;6292444;28;20053;-62
2023/12/26 06:31:01;;;;;;;7.20;2.67;;;;;;;;;;6290820;28;20139;-61
2023/12/26 06:34:01;;;;;;;6.65;2.13;;;;;;;;;;6290314;28;20474;-62
2023/12/26 06:37:02;;;;;;;6.07;2.47;;;;;;;;;;6292569;28;20217;-61
2023/12/26 06:40:04;;;;;;;10.80;4.40;;;;;;;;;;6293019;28;20060;-61
2023/12/26 06:43:06;;;;;;;11.85;4.80;;;;;;;;;;6290962;28;20048;-61
2023/12/26 06:46:07;;;;;;;11.05;3.40;;;;;;;;;;6292663;28;20060;-61
2023/12/26 06:49:09;;;;;;;7.50;2.75;;;;;;;;;;6293727;28;20047;-61
2023/12/26 06:52:12;;;;;;;5.68;2.83;;;;;;;;;;6291125;28;20048;-61
2023/12/26 06:55:13;;;;;;;7.43;3.20;;;;;;;;;;6290745;28;20041;-61
2023/12/26 06:58:13;;;;;;;6.10;2.67;;;;;;;;;;6291948;28;20094;-62
2023/12/26 07:01:15;;;;;;;6.07;2.58;;;;;;;;;;6288875;28;20048;-62
2023/12/26 07:04:16;;;;;;;6.88;2.40;;;;;;;;;;6291442;28;20131;-62
2023/12/26 07:07:17;;;;;;;7.55;2.58;;;;;;;;;;6291881;28;20075;-61
2023/12/26 07:10:17;;;;;;;6.80;2.85;;;;;;;;;;6290251;28;20044;-66
2023/12/26 07:13:18;;;;;;;7.63;3.08;;;;;;;;;;6288772;28;20063;-67
2023/12/26 07:16:19;;;;;;;5.55;2.35;;;;;;;;;;6290201;28;20479;-63
2023/12/26 07:19:20;;;;;;;6.47;1.95;;;;;;;;;;6290379;28;20135;-62
2023/12/26 07:22:20;;;;;;;8.30;2.10;;;;;;;;;;6291060;28;20444;-62
2023/12/26 07:25:21;;;;;;;5.10;1.90;;;;;;;;;;6289578;28;20131;-61
2023/12/26 07:28:22;;;;;;;5.10;1.90;;;;;;;;;;6291788;28;20483;-62
2023/12/26 07:31:23;;;;;;;6.75;2.10;;;;;;;;;;6288476;28;20057;-62
2023/12/26 07:34:23;;;;;;;4.25;1.90;;;;;;;;;;6285238;28;20420;-62
2023/12/26 07:37:24;;;;;;;5.13;2.00;;;;;;;;;;6273856;28;20081;-61
2023/12/26 07:40:25;;;;;;;5.00;1.88;;;;;;;;;;6277714;28;20045;-61
2023/12/26 07:43:25;;;;;;;5.30;2.00;;;;;;;;;;6266340;28;20068;-61
2023/12/26 07:46:26;;;;;;;5.25;2.50;;;;;;;;;;6265281;28;20056;-61
2023/12/26 07:49:27;;;;;;;5.20;2.13;;;;;;;;;;6279480;28;20049;-61
2023/12/26 07:52:27;;;;;;;6.32;1.92;;;;;;;;;;6265483;28;20715;-62
2023/12/26 07:55:29;;;;;;;6.78;2.30;;;;;;;;;;6276991;28;20114;-60
2023/12/26 07:58:31;;;;;;;4.10;2.13;;;;;;;;;;6267460;28;20057;-61
2023/12/26 08:01:32;;;;;;;4.82;2.10;;;;;;;;;;6265407;28;20071;-61
2023/12/26 08:04:33;;;;;;;4.47;1.98;;;;;;;;;;6274128;28;20064;-62
2023/12/26 08:07:34;;;;;;;6.97;2.20;;;;;;;;;;6273462;28;20049;-60
2023/12/26 08:10:35;;;;;;;5.53;2.10;;;;;;;;;;6274962;28;20486;-62
2023/12/26 08:13:37;;;;;;;;;;;;;;;;;;6292336;28;20063;-62
2023/12/26 08:16:37;;;;;;;5.95;2.00;;;;;;;;;;6291924;28;19927;-62
2023/12/26 08:19:38;;;;;;;6.78;2.20;;;;;;;;;;6291347;28;20048;-61
2023/12/26 08:22:39;;;;;;;4.07;1.98;;;;;;;;;;6290490;28;20048;-61
2023/12/26 08:25:40;;;;;;;6.97;2.00;;;;;;;;;;6291535;28;20049;-60
2023/12/26 08:28:41;;;;;;;6.60;2.10;;;;;;;;;;6282601;28;20044;-60
2023/12/26 08:31:42;;;;;;;5.45;2.03;;;;;;;;;;6283469;28;20040;-61
2023/12/26 08:34:44;;;;;;;5.82;2.30;;;;;;;;;;6291400;28;20412;-60
2023/12/26 08:37:45;;;;;;;5.93;2.30;;;;;;;;;;6277585;28;20047;-63
2023/12/26 08:40:46;;;;;;;5.90;2.00;;;;;;;;;;6289259;28;20594;-68
2023/12/26 08:43:47;;;;;;;5.22;2.20;;;;;;;;;;6275922;28;20056;-66
2023/12/26 08:46:50;;;;;;;7.45;2.30;;;;;;;;;;6285069;28;20357;-62
2023/12/26 08:49:51;;;;;;;4.68;2.30;;;;;;;;;;6285200;28;20051;-63
2023/12/26 08:52:52;;;;;;;6.40;2.10;;;;;;;;;;6279656;28;20810;-61
2023/12/26 08:55:53;;;;;;;6.05;2.38;;;;;;;;;;6290808;28;20483;-60
2023/12/26 08:58:53;;;;;;;8.05;2.40;;;;;;;;;;6283114;28;20046;-63
2023/12/26 09:01:54;;;;;;;6.72;2.45;;;;;;;;;;6281440;28;20037;-64
2023/12/26 09:04:55;;;;;;;6.15;2.60;;;;;;;;;;6290819;28;20060;-65
2023/12/26 09:07:56;;;;;;;5.63;2.45;;;;;;;;;;6283582;28;20136;-65
2023/12/26 09:10:56;;;;;;;5.63;2.30;;;;;;;;;;6289521;28;20048;-66
2023/12/26 09:13:57;;;;;;;6.50;2.30;;;;;;;;;;6285965;28;20147;-65
2023/12/26 09:16:57;;;;;;;5.85;2.40;;;;;;;;;;6286591;28;20048;-65
2023/12/26 09:19:58;;;;;;;5.32;2.40;;;;;;;;;;6289798;28;20040;-66
2023/12/26 09:22:59;;;;;;;6.30;2.22;;;;;;;;;;6274296;28;20060;-65
2023/12/26 09:26:06;;;;;;;7.40;2.70;;;;;;;;;;6290686;28;20094;-62
2023/12/26 09:29:07;;;;;;;8.45;2.70;;;;;;;;;;6279674;28;20056;-63
2023/12/26 09:32:08;;;;;;;7.70;2.70;;;;;;;;;;6279594;28;20219;-63
2023/12/26 09:35:08;;;;;;;7.28;2.90;;;;;;;;;;6289199;28;20052;-60
2023/12/26 09:38:09;;;;;;;6.60;2.42;;;;;;;;;;6281223;28;20083;-62
2023/12/26 09:41:13;;;;;;;7.60;2.80;;;;;;;;;;6288478;28;20063;-59
2023/12/26 09:44:14;;;;;;;7.90;2.70;;;;;;;;;;6277947;28;20545;-63
2023/12/26 09:47:16;;;;;;;6.85;2.78;;;;;;;;;;6281192;28;20052;-63
2023/12/26 09:50:17;;;;;;;6.40;2.70;;;;;;;;;;6286785;28;20048;-65
2023/12/26 09:53:22;;;;;;;9.77;3.22;;;;;;;;;;6278357;28;20040;-67
2023/12/26 09:56:27;;;;;;;8.75;2.72;;;;;;;;;;6293097;28;20152;-65
2023/12/26 09:59:28;;;;;;;8.52;3.13;;;;;;;;;;6287118;28;20112;-67
2023/12/26 10:02:30;;;;;;;7.67;3.20;;;;;;;;;;6292844;28;20044;-66
2023/12/26 10:05:30;;;;;;;8.07;3.08;;;;;;;;;;6294574;28;20415;-66
2023/12/26 10:08:31;;;;;;;9.77;3.42;;;;;;;;;;6294405;28;20045;-66
2023/12/26 10:11:32;;;;;;;8.77;2.60;;;;;;;;;;6293390;28;20044;-67
2023/12/26 10:14:33;;;;;;;7.30;2.97;;;;;;;;;;6294292;28;20178;-66
2023/12/26 10:17:34;;;;;;;8.40;3.22;;;;;;;;;;6292496;28;20472;-66
2023/12/26 10:20:35;;;;;;;7.53;2.70;;;;;;;;;;6293005;28;20079;-68
2023/12/26 10:23:35;;;;;;;9.85;3.05;;;;;;;;;;6291322;28;20040;-68
2023/12/26 10:26:36;;;;;;;7.50;2.70;;;;;;;;;;6294151;28;20411;-70
2023/12/26 10:29:37;;;;;;;8.80;2.50;;;;;;;;;;6294074;28;20051;-66
2023/12/26 10:32:38;;;;;;;10.40;3.67;;;;;;;;;;6292690;28;20052;-71
2023/12/26 10:35:38;;;;;;;8.98;3.10;;;;;;;;;;6293762;28;20094;-69
2023/12/26 10:38:39;;;;;;;8.40;2.85;;;;;;;;;;6294201;28;20119;-67
2023/12/26 10:41:45;;;;;;;7.63;2.67;;;;;;;;;;6292495;28;20069;-67
2023/12/26 10:45:05;;;;;;;5.88;2.53;;;;;;;;;;6292816;28;20101;-68
2023/12/26 10:48:07;;;;;;;8.75;2.88;;;;;;;;;;6294023;28;20060;-69
2023/12/26 10:51:08;;;;;;;7.57;2.85;;;;;;;;;;6293518;28;20063;-70
2023/12/26 10:54:25;;;;;;;9.70;3.83;;;;;;;;;;6292105;28;20068;-69
2023/12/26 10:57:45;;;;;;;9.77;3.22;;;;;;;;;;6285236;28;20098;-66
2023/12/26 11:00:50;;;;;;;9.18;3.25;;;;;;;;;;6293502;28;20384;-67
2023/12/26 13:53:43;;;;;;;14.10;4.95;;;;;;;;;;6290238;28;20051;-67
2023/12/26 13:56:44;;;;;;;15.32;5.10;;;;;;;;;;6289111;28;20036;-67
2023/12/26 13:59:45;;;;;;;12.45;5.15;;;;;;;;;;6288236;28;20407;-69
2023/12/26 14:02:46;;;;;;;12.02;5.20;;;;;;;;;;6290934;28;20051;-69
2023/12/26 14:05:48;;;;;;;11.88;4.80;;;;;;;;;;6290852;28;20056;-68
2023/12/26 14:09:26;;;;;;;18.38;6.88;;;;;;;;;;6291983;28;20040;-68
2023/12/26 14:13:05;;;;;;;14.18;5.07;;;;;;;;;;6284298;28;20055;-68
2023/12/26 14:16:43;;;;;;;50.25;16.65;;;;;;;;;;6294541;28;20048;-68
2023/12/26 14:20:22;;;;;;;32.40;16.13;;;;;;;;;;6290747;28;20098;-68
2023/12/26 14:24:01;;;;;;;26.90;15.00;;;;;;;;;;6291386;28;20052;-68
2023/12/26 14:27:40;;;;;;;23.70;13.13;;;;;;;;;;6291811;28;20048;-68
2023/12/26 14:31:20;;;;;;;18.58;5.72;;;;;;;;;;6291538;28;20049;-68
2023/12/26 14:34:58;;;;;;;12.52;4.82;;;;;;;;;;6279786;28;20037;-68
2023/12/26 14:38:37;;;;;;;11.38;4.25;;;;;;;;;;6277011;28;20044;-68
2023/12/26 14:42:15;;;;;;;14.38;4.53;;;;;;;;;;6291202;28;20388;-68
2023/12/26 14:45:53;;;;;;;13.93;4.53;;;;;;;;;;6293561;28;20493;-67
2023/12/26 14:49:31;;;;;;;15.82;4.72;;;;;;;;;;6290768;28;20122;-69
2023/12/26 14:53:09;;;;;;;16.23;4.70;;;;;;;;;;6291574;28;20057;-68
2023/12/26 14:56:48;;;;;;;16.50;4.38;;;;;;;;;;6288768;28;20040;-69
2023/12/26 15:00:26;;;;;;;14.57;4.90;;;;;;;;;;6280451;28;20036;-68
2023/12/26 15:03:26;;;;;;;16.88;5.28;;;;;;;;;;6290448;28;20102;-68
2023/12/26 15:06:27;;;;;;;19.95;5.43;;;;;;;;;;6290218;28;20072;-67
2023/12/26 15:09:28;;;;;;;23.25;11.68;;;;;;;;;;6290766;28;20802;-68
2023/12/26 15:12:29;;;;;;;20.00;10.07;;;;;;;;;;6290294;28;20049;-67
2023/12/26 15:15:30;;;;;;;14.95;5.28;;;;;;;;;;6287869;28;21006;-68
2023/12/26 15:18:31;;;;;;;22.70;10.75;;;;;;;;;;6289869;28;20036;-69
2023/12/26 15:21:32;;;;;;;17.27;6.10;;;;;;;;;;6289947;28;20097;-67
2023/12/26 15:24:32;;;;;;;16.73;5.57;;;;;;;;;;6291108;28;20659;-68
2023/12/26 15:27:33;;;;;;;18.42;5.93;;;;;;;;;;6290889;28;20052;-68
2023/12/26 15:30:34;;;;;;;44.13;24.02;;;;;;;;;;6288247;28;20140;-66
2023/12/26 15:33:36;;;;;;;;;;;;;;;;;;6291493;28;20056;-65
2023/12/26 15:36:37;;;;;;;26.23;14.50;;;;;;;;;;6290775;28;19924;-68
2023/12/26 15:39:37;;;;;;;26.08;8.20;;;;;;;;;;6289575;28;20403;-68
2023/12/26 15:42:38;;;;;;;20.23;6.25;;;;;;;;;;6290313;28;20510;-68
2023/12/26 15:45:39;;;;;;;20.25;6.28;;;;;;;;;;6291827;28;20056;-68
2023/12/26 15:48:39;;;;;;;15.93;5.88;;;;;;;;;;6290649;28;20040;-69
2023/12/26 15:51:43;;;;;;;14.68;5.55;;;;;;;;;;6288646;28;20044;-68
2023/12/26 15:54:44;;;;;;;18.60;6.25;;;;;;;;;;6290138;28;20132;-66
2023/12/26 15:57:46;;;;;;;17.25;6.28;;;;;;;;;;6291095;28;20048;-68
2023/12/26 16:00:47;;;;;;;14.38;5.93;;;;;;;;;;6268854;28;20044;-68
2023/12/26 16:03:52;;;;;;;13.38;5.32;;;;;;;;;;6289645;28;20072;-67
2023/12/26 16:06:53;;;;;;;15.05;6.13;;;;;;;;;;6289094;28;20067;-69
2023/12/26 16:09:53;;;;;;;13.52;5.57;;;;;;;;;;6287407;28;20048;-68
2023/12/26 16:12:54;;;;;;;31.30;15.85;;;;;;;;;;6289918;28;20057;-67
2023/12/26 16:15:55;;;;;;;13.63;6.32;;;;;;;;;;6289937;28;20052;-68
2023/12/26 16:18:56;;;;;;;13.18;5.38;;;;;;;;;;6291449;28;20127;-68
2023/12/26 16:21:56;;;;;;;18.90;6.47;;;;;;;;;;6287495;28;20504;-68
2023/12/26 16:24:57;;;;;;;18.10;6.47;;;;;;;;;;6289485;28;20043;-68
2023/12/26 16:27:58;;;;;;;21.17;7.07;;;;;;;;;;6289395;28;20044;-66
2023/12/26 16:31:04;;;;;;;30.88;8.73;;;;;;;;;;6286796;28;20070;-67
2023/12/26 16:34:05;;;;;;;26.55;9.00;;;;;;;;;;6288881;28;20048;-65
2023/12/26 16:37:06;;;;;;;26.13;9.40;;;;;;;;;;6288534;28;20057;-69
2023/12/26 16:40:07;;;;;;;22.88;8.43;;;;;;;;;;6287545;28;20051;-67
2023/12/26 16:43:08;;;;;;;22.05;7.00;;;;;;;;;;6289241;28;20414;-68
2023/12/26 16:46:09;;;;;;;14.20;5.55;;;;;;;;;;6290391;28;20048;-67
2023/12/26 16:49:10;;;;;;;13.82;4.63;;;;;;;;;;6289599;28;20665;-68
2023/12/26 16:52:11;;;;;;;12.25;3.97;;;;;;;;;;6287517;28;20051;-68
2023/12/26 16:55:13;;;;;;;10.63;4.30;;;;;;;;;;6289499;28;20048;-69
2023/12/26 16:58:13;;;;;;;11.20;4.25;;;;;;;;;;6288384;28;20081;-69
2023/12/26 17:01:14;;;;;;;12.82;4.40;;;;;;;;;;6287337;28;20396;-70
2023/12/26 17:04:15;;;;;;;15.82;6.15;;;;;;;;;;6265977;28;20584;-68
2023/12/26 17:07:16;;;;;;;23.17;8.73;;;;;;;;;;6273669;28;20055;-72
2023/12/26 17:10:16;;;;;;;16.83;6.38;;;;;;;;;;6267246;28;20052;-70
2023/12/26 17:13:19;;;;;;;21.40;7.38;;;;;;;;;;6266681;28;20078;-66
2023/12/26 17:16:19;;;;;;;;;;;;;;;;;;6269727;28;20135;-72
2023/12/26 17:19:20;;;;;;;27.10;12.63;;;;;;;;;;6266551;28;19925;-67
2023/12/26 17:22:23;;;;;;;24.85;8.02;;;;;;;;;;6268040;28;20059;-67
2023/12/26 17:25:24;;;;;;;26.35;10.15;;;;;;;;;;6270012;28;20093;-66
2023/12/26 17:28:25;;;;;;;25.77;9.60;;;;;;;;;;6269831;28;20619;-67
2023/12/26 17:31:26;;;;;;;53.10;17.88;;;;;;;;;;6281220;28;20057;-68
2023/12/26 17:34:27;;;;;;;81.60;30.63;;;;;;;;;;6282538;28;20056;-67
2023/12/26 17:37:28;;;;;;;67.10;29.92;;;;;;;;;;6273248;28;20114;-71
2023/12/26 17:40:28;;;;;;;33.75;12.57;;;;;;;;;;6272635;28;20552;-73
2023/12/26 17:43:29;;;;;;;49.92;23.65;;;;;;;;;;6271282;28;20052;-73
2023/12/26 17:46:30;;;;;;;37.38;15.57;;;;;;;;;;6273188;28;20048;-70
2023/12/26 17:49:31;;;;;;;41.05;17.13;;;;;;;;;;6268067;28;20107;-70
2023/12/26 17:52:31;;;;;;;33.50;14.05;;;;;;;;;;6270080;28;20495;-71
2023/12/26 17:55:32;;;;;;;37.05;13.18;;;;;;;;;;6272867;28;20490;-71
2023/12/26 17:58:33;;;;;;;36.03;13.93;;;;;;;;;;6272032;28;20060;-77
2023/12/26 18:01:38;;;;;;;38.13;15.65;;;;;;;;;;6274771;28;20049;-71
2023/12/26 18:04:39;;;;;;;30.08;11.68;;;;;;;;;;6281760;28;20056;-70
2023/12/26 18:07:40;;;;;;;36.60;12.73;;;;;;;;;;6283657;28;20049;-71
2023/12/26 18:10:40;;;;;;;36.80;13.40;;;;;;;;;;6272878;28;20523;-74
2023/12/26 18:13:41;;;;;;;25.25;8.35;;;;;;;;;;6269403;28;20048;-72
2023/12/26 18:16:42;;;;;;;23.58;7.75;;;;;;;;;;6279205;28;20053;-74
2023/12/26 18:19:44;;;;;;;19.95;6.40;;;;;;;;;;6274938;28;20045;-71
2023/12/26 18:22:44;;;;;;;18.33;6.05;;;;;;;;;;6271300;28;20107;-68
2023/12/26 18:25:45;;;;;;;15.02;5.35;;;;;;;;;;6269127;28;20487;-64
2023/12/26 18:28:46;;;;;;;87.20;35.00;;;;;;;;;;6279639;28;20079;-68
2023/12/26 18:31:47;;;;;;;26.08;11.65;;;;;;;;;;6271203;28;20516;-67
2023/12/26 18:34:47;;;;;;;41.15;22.92;;;;;;;;;;6277361;28;20044;-65
2023/12/26 18:37:52;;;;;;;29.63;15.00;;;;;;;;;;6274991;28;20044;-65
2023/12/26 18:40:52;;;;;;;40.25;23.52;;;;;;;;;;6270044;28;20094;-64
2023/12/26 18:43:53;;;;;;;24.77;11.57;;;;;;;;;;6272691;28;20048;-67
2023/12/26 18:46:54;;;;;;;33.33;16.08;;;;;;;;;;6275605;28;20048;-65
2023/12/26 18:49:55;;;;;;;33.58;16.58;;;;;;;;;;6274093;28;20467;-63
2023/12/26 18:52:55;;;;;;;17.48;7.40;;;;;;;;;;6273038;28;20063;-62
2023/12/26 18:55:57;;;;;;;24.35;9.45;;;;;;;;;;6274879;28;20134;-65
2023/12/26 18:58:58;;;;;;;26.60;10.15;;;;;;;;;;6274634;28;20056;-67
2023/12/26 19:02:00;;;;;;;32.72;11.15;;;;;;;;;;6268893;28;20048;-66
2023/12/26 19:05:01;;;;;;;31.95;11.55;;;;;;;;;;6269496;28;20064;-65
2023/12/26 19:08:02;;;;;;;27.65;11.55;;;;;;;;;;6272344;28;20044;-65
2023/12/26 19:11:04;;;;;;;26.90;10.63;;;;;;;;;;6271256;28;20768;-63
2023/12/26 19:14:05;;;;;;;;;;;;;;;;;;6270848;28;20510;-64
2023/12/26 19:17:05;;;;;;;33.67;12.25;;;;;;;;;;6275159;28;19934;-62
2023/12/26 19:20:11;;;;;;;30.50;12.75;;;;;;;;;;6276387;28;20129;-66
2023/12/26 19:23:12;;;;;;;24.50;8.40;;;;;;;;;;6269185;28;20487;-65
2023/12/26 19:26:12;;;;;;;19.70;7.60;;;;;;;;;;6276278;28;20052;-64
2023/12/26 19:29:13;;;;;;;24.33;9.23;;;;;;;;;;6271810;28;20052;-65
2023/12/26 19:32:14;;;;;;;23.15;10.15;;;;;;;;;;6269939;28;20478;-67
2023/12/26 19:35:15;;;;;;;23.00;8.40;;;;;;;;;;6275500;28;20052;-64
2023/12/26 19:38:17;;;;;;;24.45;8.82;;;;;;;;;;6276026;28;20048;-64
2023/12/26 19:41:19;;;;;;;28.90;9.77;;;;;;;;;;6267772;28;20709;-65
2023/12/26 19:44:21;;;;;;;30.63;9.65;;;;;;;;;;6270526;28;20099;-66
2023/12/26 19:47:23;;;;;;;;;;;;;;;;;;6276597;28;20470;-66
2023/12/26 19:50:25;;;;;;;;;;;;;;;;;;6272695;28;19928;-67
2023/12/26 19:53:26;;;;;;;31.73;10.85;;;;;;;;;;6266809;28;20418;-66
2023/12/26 19:56:27;;;;;;;29.67;12.13;;;;;;;;;;6271689;28;20797;-64
2023/12/26 19:59:28;;;;;;;29.25;12.13;;;;;;;;;;6271555;28;20048;-64
2023/12/26 20:02:29;;;;;;;29.98;11.20;;;;;;;;;;6265727;28;20080;-65
2023/12/26 20:05:30;;;;;;;33.33;12.05;;;;;;;;;;6271912;28;20056;-65
2023/12/26 20:08:31;;;;;;;38.35;12.88;;;;;;;;;;6269820;28;20127;-65
2023/12/26 20:11:31;;;;;;;25.33;9.30;;;;;;;;;;6265609;28;20072;-65
2023/12/26 20:14:33;;;;;;;31.60;11.30;;;;;;;;;;6267038;28;20044;-67
2023/12/26 20:17:34;;;;;;;25.75;10.05;;;;;;;;;;6264344;28;20770;-68
2023/12/26 20:20:35;;;;;;;22.75;9.20;;;;;;;;;;6267812;28;20156;-69
2023/12/26 20:23:36;;;;;;;20.25;7.13;;;;;;;;;;6263588;28;20040;-68
2023/12/26 20:26:48;;;;;;;13.88;5.00;;;;;;;;;;6270128;28;20074;-68
2023/12/26 20:29:49;;;;;;;;;;;;;;;;;;6265572;28;20053;-68
2023/12/26 20:33:10;;;;;;;8.00;3.30;;;;;;;;;;6261380;28;19921;-68
2023/12/26 20:36:11;;;;;;;17.85;4.40;;;;;;;;;;6264762;28;20085;-68
2023/12/26 20:39:13;;;;;;;9.68;3.88;;;;;;;;;;6265503;28;20079;-67
2023/12/26 20:42:16;;;;;;;10.75;3.67;;;;;;;;;;6268180;28;20077;-67
2023/12/26 20:45:17;;;;;;;7.38;3.40;;;;;;;;;;6261833;28;20210;-66
2023/12/26 20:48:20;;;;;;;10.63;4.00;;;;;;;;;;6267361;28;20095;-68
2023/12/26 20:51:20;;;;;;;;;;;;;;;;;;6267225;28;20110;-68
2023/12/26 20:54:22;;;;;;;11.98;3.63;;;;;;;;;;6263088;28;20694;-66
2023/12/26 20:57:23;;;;;;;10.23;3.38;;;;;;;;;;6270821;28;20084;-67
2023/12/26 21:00:28;;;;;;;11.30;3.42;;;;;;;;;;6269223;28;20086;-67